createdAt,value
2023-02-17T00:00:39.145Z,25.45
2023-02-17T00:03:05.726Z,22.40
2023-02-17T00:05:32.408Z,24.63
2023-02-17T00:07:58.981Z,28.95
2023-02-17T00:10:25.540Z,23.45
2023-02-17T00:12:52.199Z,27.17
2023-02-17T00:15:19.159Z,23.50
2023-02-17T00:17:45.784Z,22.95
2023-02-17T00:20:12.618Z,24.73
2023-02-17T00:22:39.303Z,24.38
2023-02-17T00:25:06.635Z,25.27
2023-02-17T00:27:33.230Z,25.70
2023-02-17T00:30:02.497Z,23.02
2023-02-17T00:32:29.248Z,24.63
2023-02-17T00:34:58.283Z,27.58
2023-02-17T00:37:25.651Z,30.25
2023-02-17T00:39:52.284Z,28.25
2023-02-17T00:42:19.235Z,32.47
2023-02-17T00:44:45.930Z,28.55
2023-02-17T00:47:13.391Z,25.48
2023-02-17T00:49:40.851Z,37.00
2023-02-17T00:52:07.602Z,34.95
2023-02-17T00:54:34.211Z,36.92
2023-02-17T00:57:00.803Z,33.75
2023-02-17T00:59:27.489Z,32.83
2023-02-17T01:01:54.360Z,32.22
2023-02-17T01:04:21.361Z,28.08
2023-02-17T01:06:48.033Z,33.30
2023-02-17T01:09:14.986Z,33.90
2023-02-17T01:11:42.445Z,32.72
2023-02-17T01:14:12.692Z,32.67
2023-02-17T01:16:41.797Z,29.50
2023-02-17T01:19:11.659Z,31.80
2023-02-17T01:21:38.481Z,32.45
2023-02-17T01:24:07.179Z,31.92
2023-02-17T01:26:36.710Z,33.90
2023-02-17T01:29:05.193Z,32.20
2023-02-17T01:31:32.427Z,39.45
2023-02-17T01:34:02.671Z,36.25
2023-02-17T01:36:29.826Z,35.65
2023-02-17T01:38:56.794Z,33.85
2023-02-17T01:41:29.275Z,34.85
2023-02-17T01:44:22.921Z,31.45
2023-02-17T01:46:51.486Z,31.08
2023-02-17T01:49:33.240Z,38.03
2023-02-17T01:52:18.244Z,35.08
2023-02-17T01:54:50.260Z,33.72
2023-02-17T01:57:19.500Z,40.00
2023-02-17T01:59:46.578Z,40.60
2023-02-17T02:02:14.207Z,39.05
2023-02-17T02:04:46.416Z,40.90
2023-02-17T02:07:23.716Z,38.80
2023-02-17T02:09:56.141Z,42.08
2023-02-17T02:12:28.796Z,44.95
2023-02-17T02:15:00.166Z,44.63
2023-02-17T02:17:51.706Z,43.63
2023-02-17T02:20:30.216Z,43.30
2023-02-17T02:23:20.874Z,47.47
2023-02-17T02:26:25.250Z,45.80
2023-02-17T02:29:28.324Z,52.38
2023-02-17T02:32:23.931Z,53.55
2023-02-17T02:34:59.902Z,51.80
2023-02-17T02:37:41.412Z,58.75
2023-02-17T02:40:11.256Z,58.45
2023-02-17T02:42:39.252Z,58.63
2023-02-17T02:45:10.588Z,56.40
2023-02-17T02:47:47.943Z,59.88
2023-02-17T02:50:28.398Z,62.65
2023-02-17T02:53:39.264Z,58.95
2023-02-17T02:56:28.518Z,70.78
2023-02-17T02:59:29.207Z,58.20
2023-02-17T03:02:12.228Z,73.30
2023-02-17T03:04:47.688Z,64.93
2023-02-17T03:07:37.553Z,68.82
2023-02-17T03:10:05.709Z,64.45
2023-02-17T03:12:36.400Z,66.32
2023-02-17T03:15:28.670Z,79.05
2023-02-17T03:18:00.053Z,72.22
2023-02-17T03:20:30.606Z,78.43
2023-02-17T03:22:57.540Z,74.43
2023-02-17T03:25:24.465Z,71.63
2023-02-17T03:27:51.161Z,75.55
2023-02-17T03:30:18.048Z,76.07
2023-02-17T03:32:44.851Z,74.57
2023-02-17T03:35:11.489Z,75.32
2023-02-17T03:37:38.386Z,79.68
2023-02-17T03:40:07.331Z,85.78
2023-02-17T03:42:34.068Z,69.97
2023-02-17T03:45:00.648Z,77.70
2023-02-17T03:47:27.488Z,68.75
2023-02-17T03:49:54.097Z,72.15
2023-02-17T03:52:20.879Z,70.07
2023-02-17T03:54:47.570Z,69.22
2023-02-17T03:57:14.666Z,59.10
2023-02-17T03:59:41.243Z,57.35
2023-02-17T04:02:07.829Z,57.60
2023-02-17T04:04:36.090Z,58.53
2023-02-17T04:07:02.737Z,58.15
2023-02-17T04:09:29.336Z,62.05
2023-02-17T04:11:55.945Z,54.97
2023-02-17T04:14:22.584Z,48.63
2023-02-17T04:16:49.221Z,52.92
2023-02-17T04:19:15.870Z,58.78
2023-02-17T04:21:42.509Z,60.10
2023-02-17T04:24:09.184Z,52.05
2023-02-17T04:26:35.864Z,62.35
2023-02-17T04:29:04.836Z,62.08
2023-02-17T04:31:32.805Z,60.03
2023-02-17T04:33:59.480Z,58.22
2023-02-17T04:36:26.185Z,59.15
2023-02-17T04:38:52.885Z,58.63
2023-02-17T04:41:20.101Z,63.17
2023-02-17T04:43:46.714Z,65.18
2023-02-17T04:46:13.476Z,67.53
2023-02-17T04:48:40.359Z,66.28
2023-02-17T04:51:07.071Z,61.42
2023-02-17T04:53:33.733Z,61.58
2023-02-17T04:56:00.863Z,61.90
2023-02-17T04:58:27.526Z,62.28
2023-02-17T05:00:54.152Z,58.70
2023-02-17T05:03:20.899Z,59.42
2023-02-17T05:05:47.509Z,54.80
2023-02-17T05:08:14.390Z,51.17
2023-02-17T05:10:41.666Z,46.60
2023-02-17T05:13:08.306Z,40.97
2023-02-17T05:15:35.288Z,44.63
2023-02-17T05:18:02.251Z,41.05
2023-02-17T05:20:28.988Z,40.65
2023-02-17T05:22:55.573Z,42.38
2023-02-17T05:25:22.232Z,39.88
2023-02-17T05:27:49.042Z,35.70
2023-02-17T05:30:16.658Z,30.23
2023-02-17T05:32:43.432Z,35.55
2023-02-17T05:35:10.238Z,34.72
2023-02-17T05:37:36.895Z,31.38
2023-02-17T05:40:03.798Z,32.45
2023-02-17T05:42:30.380Z,19.98
2023-02-17T05:44:57.032Z,28.52
2023-02-17T05:47:23.936Z,29.15
2023-02-17T05:49:50.741Z,27.73
2023-02-17T05:52:18.187Z,30.30
2023-02-17T05:54:45.332Z,27.60
2023-02-17T05:57:11.903Z,26.55
2023-02-17T05:59:38.589Z,27.58
2023-02-17T06:02:05.269Z,27.77
2023-02-17T06:04:33.343Z,30.15
2023-02-17T06:07:00.241Z,26.33
2023-02-17T06:09:26.952Z,26.38
2023-02-17T06:11:53.678Z,27.48
2023-02-17T06:14:20.325Z,26.75
2023-02-17T06:16:47.149Z,25.85
2023-02-17T06:19:13.815Z,30.45
2023-02-17T06:21:41.002Z,25.55
2023-02-17T06:24:07.767Z,25.60
2023-02-17T06:26:34.836Z,29.17
2023-02-17T06:29:01.447Z,29.95
2023-02-17T06:31:28.235Z,23.98
2023-02-17T06:33:54.890Z,26.48
2023-02-17T06:36:21.524Z,26.70
2023-02-17T06:38:48.112Z,28.05
2023-02-17T06:41:14.777Z,29.08
2023-02-17T06:43:41.615Z,28.13
2023-02-17T06:46:08.608Z,27.02
2023-02-17T06:48:35.795Z,27.90
2023-02-17T06:51:02.430Z,31.42
2023-02-17T06:53:29.038Z,28.40
2023-02-17T06:55:55.944Z,26.02
2023-02-17T06:58:22.646Z,28.13
2023-02-17T07:00:49.320Z,32.78
2023-02-17T07:03:15.926Z,30.50
2023-02-17T07:05:42.525Z,34.15
2023-02-17T07:08:09.195Z,28.23
2023-02-17T07:10:37.872Z,34.70
2023-02-17T07:13:04.584Z,31.08
2023-02-17T07:15:31.329Z,27.38
2023-02-17T07:17:58.371Z,30.35
2023-02-17T07:20:24.971Z,33.97
2023-02-17T07:22:51.569Z,27.70
2023-02-17T07:25:18.209Z,30.98
2023-02-17T07:27:44.850Z,28.25
2023-02-17T07:30:12.088Z,27.27
2023-02-17T07:32:39.238Z,29.17
2023-02-17T07:35:06.140Z,31.05
2023-02-17T07:37:34.102Z,27.45
2023-02-17T07:40:00.731Z,26.88
2023-02-17T07:42:28.215Z,31.73
2023-02-17T07:44:54.836Z,32.78
2023-02-17T07:47:21.448Z,29.85
2023-02-17T07:49:48.035Z,30.30
2023-02-17T07:52:17.860Z,31.42
2023-02-17T07:54:44.799Z,31.73
2023-02-17T07:57:11.395Z,30.20
2023-02-17T07:59:38.005Z,30.98
2023-02-17T08:02:04.713Z,30.83
2023-02-17T08:04:32.776Z,32.78
2023-02-17T08:06:59.435Z,32.50
2023-02-17T08:09:44.751Z,29.40
2023-02-17T08:12:38.282Z,28.63
2023-02-17T08:15:07.491Z,29.98
2023-02-17T08:17:34.239Z,32.55
2023-02-17T08:20:07.933Z,30.10
2023-02-17T08:22:35.699Z,31.70
2023-02-17T08:25:02.424Z,27.13
2023-02-17T08:27:29.031Z,29.42
2023-02-17T08:29:55.980Z,31.33
2023-02-17T08:32:23.353Z,26.48
2023-02-17T08:34:50.175Z,29.13
2023-02-17T08:37:16.900Z,33.75
2023-02-17T08:39:43.865Z,32.97
2023-02-17T08:42:11.966Z,29.70
2023-02-17T08:44:38.937Z,31.00
2023-02-17T08:47:06.724Z,31.90
2023-02-17T08:49:33.673Z,39.28
2023-02-17T08:52:00.828Z,32.75
2023-02-17T08:54:28.283Z,31.42
2023-02-17T08:56:54.991Z,29.67
2023-02-17T08:59:21.912Z,31.95
2023-02-17T09:01:48.715Z,27.65
2023-02-17T09:04:18.590Z,27.48
2023-02-17T09:06:50.666Z,24.90
2023-02-17T09:09:22.670Z,25.38
2023-02-17T09:11:49.490Z,19.63
2023-02-17T09:14:16.250Z,21.58
2023-02-17T09:16:43.133Z,24.33
2023-02-17T09:19:09.877Z,22.33
2023-02-17T09:21:36.562Z,22.48
2023-02-17T09:24:03.539Z,24.05
2023-02-17T09:26:30.191Z,23.85
2023-02-17T09:28:57.783Z,20.42
2023-02-17T09:31:27.037Z,20.08
2023-02-17T09:33:54.957Z,20.10
2023-02-17T09:36:28.029Z,21.80
2023-02-17T09:38:55.748Z,21.25
2023-02-17T09:41:37.926Z,21.40
2023-02-17T09:44:07.424Z,17.58
2023-02-17T09:46:59.368Z,18.63
2023-02-17T09:49:32.468Z,17.77
2023-02-17T09:52:15.207Z,27.00
2023-02-17T09:54:59.477Z,21.48
2023-02-17T09:57:29.243Z,19.92
2023-02-17T10:00:02.360Z,20.02
2023-02-17T10:02:50.409Z,23.23
2023-02-17T10:05:21.605Z,19.85
2023-02-17T10:07:54.433Z,20.33
2023-02-17T10:10:27.911Z,20.83
2023-02-17T10:13:02.017Z,20.77
2023-02-17T10:15:35.384Z,23.77
2023-02-17T10:18:11.577Z,21.05
2023-02-17T10:20:49.814Z,22.92
2023-02-17T10:23:18.523Z,28.08
2023-02-17T10:26:05.946Z,23.60
2023-02-17T10:28:53.541Z,28.80
2023-02-17T10:31:56.570Z,28.45
2023-02-17T10:34:36.746Z,30.52
2023-02-17T10:37:24.905Z,30.30
2023-02-17T10:39:54.660Z,31.00
2023-02-17T10:42:30.803Z,29.25
2023-02-17T10:45:10.504Z,35.25
2023-02-17T10:47:39.776Z,27.67
2023-02-17T10:50:23.379Z,31.25
2023-02-17T10:52:50.989Z,30.85
2023-02-17T10:55:33.743Z,32.03
2023-02-17T10:58:13.055Z,27.35
2023-02-17T11:00:42.284Z,29.15
2023-02-17T11:03:20.433Z,28.05
2023-02-17T11:05:57.689Z,29.08
2023-02-17T11:08:31.555Z,29.13
2023-02-17T11:11:04.596Z,28.45
2023-02-17T11:13:40.049Z,24.80
2023-02-17T11:16:19.987Z,26.50
2023-02-17T11:18:49.561Z,26.08
2023-02-17T11:21:16.433Z,22.33
2023-02-17T11:23:56.332Z,23.25
2023-02-17T11:26:25.634Z,27.83
2023-02-17T11:28:52.362Z,19.80
2023-02-17T11:31:27.768Z,20.63
2023-02-17T11:33:56.978Z,21.80
2023-02-17T11:36:27.470Z,19.08
2023-02-17T11:38:54.534Z,20.45
2023-02-17T11:41:21.293Z,20.75
2023-02-17T11:43:58.545Z,16.98
2023-02-17T11:46:41.118Z,18.95
2023-02-17T11:49:36.960Z,17.48
2023-02-17T11:52:19.387Z,17.10
2023-02-17T11:55:12.925Z,16.67
2023-02-17T11:57:45.657Z,17.30
2023-02-17T12:00:15.069Z,17.48
2023-02-17T12:03:17.329Z,18.70
2023-02-17T12:06:11.353Z,17.70
2023-02-17T12:09:07.786Z,19.33
2023-02-17T12:11:55.640Z,19.98
2023-02-17T12:14:37.334Z,18.48
2023-02-17T12:17:35.383Z,21.15
2023-02-17T12:20:38.125Z,19.58
2023-02-17T12:23:29.638Z,19.48
2023-02-17T12:26:11.117Z,19.17
2023-02-17T12:28:52.883Z,19.20
2023-02-17T12:31:19.577Z,20.33
2023-02-17T12:34:01.414Z,19.95
2023-02-17T12:36:33.425Z,20.25
2023-02-17T12:39:18.165Z,21.23
2023-02-17T12:42:03.282Z,20.77
2023-02-17T12:44:34.232Z,20.75
2023-02-17T12:47:15.921Z,22.15
2023-02-17T12:49:48.988Z,23.27
2023-02-17T12:52:27.208Z,22.38
2023-02-17T12:55:19.852Z,19.67
2023-02-17T12:58:04.008Z,21.05
2023-02-17T13:00:38.370Z,22.13
2023-02-17T13:03:05.389Z,20.90
2023-02-17T13:06:01.208Z,20.60
2023-02-17T13:08:37.212Z,20.55
2023-02-17T13:11:08.230Z,21.13
2023-02-17T13:13:35.560Z,20.70
2023-02-17T13:16:14.178Z,19.15
2023-02-17T13:18:45.724Z,19.60
2023-02-17T13:21:32.937Z,18.20
2023-02-17T13:24:07.379Z,19.90
2023-02-17T13:26:52.421Z,19.83
2023-02-17T13:29:39.799Z,19.33
2023-02-17T13:32:33.237Z,18.50
2023-02-17T13:35:29.608Z,18.15
2023-02-17T13:37:56.304Z,18.23
2023-02-17T13:40:24.107Z,16.77
2023-02-17T13:42:55.843Z,16.13
2023-02-17T13:45:44.806Z,17.05
2023-02-17T13:48:15.642Z,17.73
2023-02-17T13:51:23.742Z,17.20
2023-02-17T13:53:50.883Z,16.90
2023-02-17T13:56:29.665Z,17.55
2023-02-17T13:59:18.143Z,18.42
2023-02-17T14:01:46.964Z,17.90
2023-02-17T14:04:27.191Z,17.27
2023-02-17T14:06:56.722Z,17.83
2023-02-17T14:09:27.763Z,18.42
2023-02-17T14:11:55.891Z,20.23
2023-02-17T14:14:27.675Z,23.05
2023-02-17T14:17:03.893Z,26.40
2023-02-17T14:19:45.323Z,21.77
2023-02-17T14:22:30.953Z,29.67
2023-02-17T14:25:06.872Z,32.78
2023-02-17T14:27:49.450Z,29.65
2023-02-17T14:30:39.311Z,33.83
2023-02-17T14:33:21.821Z,36.90
2023-02-17T14:36:00.605Z,35.80
2023-02-17T14:38:40.488Z,48.08
2023-02-17T14:41:11.435Z,47.53
2023-02-17T14:43:38.105Z,46.45
2023-02-17T14:46:05.448Z,44.70
2023-02-17T14:48:32.349Z,57.47
2023-02-17T14:50:59.069Z,53.30
2023-02-17T14:53:32.645Z,46.70
2023-02-17T14:56:21.893Z,56.97
2023-02-17T14:58:52.959Z,63.88
2023-02-17T15:01:21.538Z,59.22
2023-02-17T15:03:48.844Z,51.88
2023-02-17T15:06:32.488Z,63.17
2023-02-17T15:09:00.984Z,48.25
2023-02-17T15:11:30.417Z,50.53
2023-02-17T15:13:57.315Z,41.67
2023-02-17T15:16:24.035Z,47.78
2023-02-17T15:18:50.909Z,46.03
2023-02-17T15:21:27.723Z,47.42
2023-02-17T15:23:55.882Z,41.38
2023-02-17T15:26:23.260Z,41.17
2023-02-17T15:28:50.493Z,41.05
2023-02-17T15:31:20.592Z,38.13
2023-02-17T15:33:58.811Z,36.53
2023-02-17T15:36:26.969Z,37.15
2023-02-17T15:38:54.465Z,30.08
2023-02-17T15:41:24.449Z,30.83
2023-02-17T15:43:52.290Z,31.42
2023-02-17T15:46:20.949Z,28.75
2023-02-17T15:48:49.770Z,29.88
2023-02-17T15:51:19.365Z,29.85
2023-02-17T15:53:47.210Z,33.85
2023-02-17T15:56:21.438Z,33.88
2023-02-17T15:58:49.446Z,34.58
2023-02-17T16:01:31.835Z,30.13
2023-02-17T16:03:59.333Z,39.97
2023-02-17T16:06:27.382Z,39.95
2023-02-17T16:08:54.764Z,48.65
2023-02-17T16:11:23.052Z,39.65
2023-02-17T16:13:50.289Z,43.15
2023-02-17T16:16:35.920Z,37.05
2023-02-17T16:19:02.666Z,35.33
2023-02-17T16:21:29.336Z,31.00
2023-02-17T16:23:59.615Z,34.53
2023-02-17T16:26:34.387Z,27.05
2023-02-17T16:29:03.483Z,27.63
2023-02-17T16:31:33.477Z,31.38
2023-02-17T16:34:00.216Z,32.55
2023-02-17T16:36:31.351Z,32.70
2023-02-17T16:39:00.416Z,27.40
2023-02-17T16:41:27.054Z,25.70
2023-02-17T16:43:53.742Z,28.15
2023-02-17T16:46:29.556Z,29.42
2023-02-17T16:48:57.602Z,32.50
2023-02-17T16:51:24.545Z,29.73
2023-02-17T16:53:51.465Z,29.65
2023-02-17T16:56:25.901Z,30.50
2023-02-17T16:58:52.601Z,30.58
2023-02-17T17:01:19.288Z,28.70
2023-02-17T17:03:46.057Z,34.28
2023-02-17T17:06:19.462Z,36.83
2023-02-17T17:08:46.696Z,33.83
2023-02-17T17:11:15.956Z,40.97
2023-02-17T17:13:44.460Z,33.38
2023-02-17T17:16:35.593Z,31.85
2023-02-17T17:19:03.822Z,30.10
2023-02-17T17:21:30.911Z,33.50
2023-02-17T17:23:57.543Z,29.25
2023-02-17T17:26:41.229Z,29.98
2023-02-17T17:29:09.931Z,32.55
2023-02-17T17:31:36.782Z,29.90
2023-02-17T17:34:03.585Z,29.88
2023-02-17T17:36:37.528Z,31.30
2023-02-17T17:39:06.371Z,32.17
2023-02-17T17:41:33.713Z,33.05
2023-02-17T17:44:00.315Z,33.58
2023-02-17T17:46:30.483Z,33.38
2023-02-17T17:48:58.818Z,34.20
2023-02-17T17:51:27.662Z,29.80
2023-02-17T17:53:55.006Z,32.00
2023-02-17T17:56:27.573Z,31.25
2023-02-17T17:58:55.731Z,29.70
2023-02-17T18:01:23.043Z,31.30
2023-02-17T18:03:50.392Z,34.13
2023-02-17T18:06:40.538Z,36.55
2023-02-17T18:09:13.298Z,32.65
2023-02-17T18:11:44.409Z,34.92
2023-02-17T18:14:14.022Z,34.20
2023-02-17T18:16:44.282Z,32.30
2023-02-17T18:19:12.162Z,34.70
2023-02-17T18:21:39.745Z,35.03
2023-02-17T18:24:06.790Z,33.40
2023-02-17T18:26:33.829Z,38.15
2023-02-17T18:29:00.640Z,34.53
2023-02-17T18:31:29.486Z,36.20
2023-02-17T18:33:56.324Z,33.22
2023-02-17T18:36:26.207Z,35.58
2023-02-17T18:38:53.555Z,43.40
2023-02-17T18:41:31.431Z,33.10
2023-02-17T18:43:59.399Z,32.78
2023-02-17T18:46:27.179Z,40.10
2023-02-17T18:48:55.266Z,43.28
2023-02-17T18:51:23.376Z,38.95
2023-02-17T18:53:54.630Z,38.42
2023-02-17T18:56:24.750Z,37.35
2023-02-17T18:58:53.424Z,44.85
2023-02-17T19:01:26.181Z,48.38
2023-02-17T19:03:52.950Z,49.40
2023-02-17T19:06:22.357Z,57.28
2023-02-17T19:08:49.617Z,49.90
2023-02-17T19:11:18.376Z,62.50
2023-02-17T19:13:45.462Z,44.88
2023-02-17T19:16:15.722Z,43.20
2023-02-17T19:18:43.160Z,47.05
2023-02-17T19:21:10.363Z,47.78
2023-02-17T19:23:37.519Z,35.85
2023-02-17T19:26:06.876Z,41.83
2023-02-17T19:28:35.980Z,38.95
2023-02-17T19:31:06.322Z,41.83
2023-02-17T19:33:33.351Z,44.72
2023-02-17T19:35:59.987Z,41.38
2023-02-17T19:38:26.721Z,47.47
2023-02-17T19:40:53.423Z,51.45
2023-02-17T19:43:19.993Z,57.33
2023-02-17T19:45:46.702Z,60.58
2023-02-17T19:48:13.369Z,61.90
2023-02-17T19:50:40.080Z,32.28
2023-02-17T19:53:07.394Z,35.92
2023-02-17T19:55:34.362Z,23.38
2023-02-17T19:58:00.970Z,25.02
2023-02-17T20:00:27.665Z,25.00
2023-02-17T20:02:54.399Z,25.77
2023-02-17T20:05:21.108Z,22.55
2023-02-17T20:07:48.035Z,17.50
2023-02-17T20:10:14.772Z,19.80
2023-02-17T20:12:41.479Z,23.48
2023-02-17T20:15:08.787Z,16.52
2023-02-17T20:17:35.386Z,21.42
2023-02-17T20:20:02.068Z,14.45
2023-02-17T20:22:28.709Z,18.48
2023-02-17T20:24:55.403Z,24.10
2023-02-17T20:27:22.034Z,16.77
2023-02-17T20:29:48.947Z,22.98
2023-02-17T20:32:15.763Z,20.75
2023-02-17T20:34:42.504Z,15.15
2023-02-17T20:37:10.244Z,24.10
2023-02-17T20:39:38.559Z,19.45
2023-02-17T20:42:05.644Z,19.48
2023-02-17T20:44:32.390Z,19.15
2023-02-17T20:46:59.311Z,25.95
2023-02-17T20:49:26.486Z,22.80
2023-02-17T20:51:53.682Z,19.65
2023-02-17T20:54:20.347Z,22.92
2023-02-17T20:56:47.748Z,23.42
2023-02-17T20:59:14.532Z,22.58
2023-02-17T21:01:41.822Z,17.98
2023-02-17T21:04:09.020Z,16.88
2023-02-17T21:06:40.876Z,18.63
2023-02-17T21:09:14.556Z,21.05
2023-02-17T21:11:41.767Z,21.30
2023-02-17T21:14:08.640Z,18.67
2023-02-17T21:16:35.640Z,22.38
2023-02-17T21:19:02.951Z,18.77
2023-02-17T21:21:30.760Z,20.45
2023-02-17T21:23:58.251Z,25.27
2023-02-17T21:26:25.280Z,19.92
2023-02-17T21:28:52.058Z,21.83
2023-02-17T21:31:19.071Z,17.73
2023-02-17T21:33:46.020Z,18.13
2023-02-17T21:36:15.221Z,24.77
2023-02-17T21:38:42.294Z,21.23
2023-02-17T21:41:15.177Z,20.30
2023-02-17T21:44:00.846Z,14.18
2023-02-17T21:46:28.304Z,22.00
2023-02-17T21:48:55.952Z,15.50
2023-02-17T21:51:22.938Z,18.67
2023-02-17T21:53:49.940Z,17.50
2023-02-17T21:56:16.729Z,15.57
2023-02-17T21:58:48.624Z,11.90
2023-02-17T22:01:16.139Z,23.75
2023-02-17T22:03:42.986Z,14.15
2023-02-17T22:06:21.170Z,19.45
2023-02-17T22:08:48.069Z,19.17
2023-02-17T22:11:16.789Z,14.52
2023-02-17T22:13:43.552Z,8.75
2023-02-17T22:16:10.728Z,11.95
2023-02-17T22:18:37.648Z,16.60
2023-02-17T22:21:08.709Z,16.83
2023-02-17T22:23:35.471Z,19.15
2023-02-17T22:26:09.624Z,21.35
2023-02-17T22:28:36.643Z,11.95
2023-02-17T22:31:04.202Z,19.08
2023-02-17T22:33:30.948Z,15.18
2023-02-17T22:36:00.508Z,12.45
2023-02-17T22:38:27.261Z,13.48
2023-02-17T22:40:54.050Z,16.45
2023-02-17T22:43:20.776Z,16.02
2023-02-17T22:45:47.433Z,12.15
2023-02-17T22:48:14.067Z,10.32
2023-02-17T22:50:41.800Z,15.90
2023-02-17T22:53:08.669Z,18.20
2023-02-17T22:55:35.714Z,16.88
2023-02-17T22:58:02.337Z,10.93
2023-02-17T23:00:28.949Z,22.95
2023-02-17T23:02:55.625Z,10.77
2023-02-17T23:05:22.316Z,21.73
2023-02-17T23:07:52.501Z,16.83
2023-02-17T23:10:20.397Z,17.63
2023-02-17T23:12:47.136Z,10.57
2023-02-17T23:15:13.815Z,19.00
2023-02-17T23:17:58.612Z,16.10
2023-02-17T23:20:25.441Z,16.73
2023-02-17T23:22:52.089Z,10.45
2023-02-17T23:25:18.687Z,16.10
2023-02-17T23:27:45.330Z,17.60
2023-02-17T23:30:19.713Z,17.45
2023-02-17T23:32:46.376Z,15.35
2023-02-17T23:35:13.397Z,28.00
2023-02-17T23:37:40.255Z,21.20
2023-02-17T23:40:08.232Z,18.25
2023-02-17T23:42:34.855Z,23.65
2023-02-17T23:45:01.586Z,23.52
2023-02-17T23:47:28.380Z,34.78
2023-02-17T23:49:54.997Z,25.90
2023-02-17T23:52:21.773Z,29.50
2023-02-17T23:54:48.437Z,30.13
2023-02-17T23:57:15.332Z,29.17
2023-02-17T23:59:42.088Z,37.65
